Time;durP1;ratioP1;P1;durP2;ratioP2;P2;SDS_P1;SDS_P2;PMS_P1;PMS_P2;Temp;Humidity;BMP_temperature;BMP_pressure;BME280_temperature;BME280_humidity;BME280_pressure;Samples;Min_cycle;Max_cycle;Signal;HPM_P1;HPM_P2
2022/07/20 00:01:22;;;;;;;9.63;2.60;;;23.90;99.90;;;;;;5025404;28;20060;-80
2022/07/20 00:03:47;;;;;;;7.05;2.33;;;24.20;99.90;;;;;;5041840;28;20052;-80
2022/07/20 00:06:14;;;;;;;7.90;2.65;;;24.00;99.90;;;;;;5024418;28;20053;-80
2022/07/20 00:11:26;;;;;;;5.03;2.28;;;23.90;99.90;;;;;;5041463;28;20209;-80
2022/07/20 00:13:59;;;;;;;6.88;2.55;;;23.70;99.90;;;;;;5024783;28;20048;-80
2022/07/20 00:16:27;;;;;;;4.57;2.40;;;23.60;99.90;;;;;;5032399;28;20129;-80
2022/07/20 00:18:53;;;;;;;6.65;2.35;;;23.90;99.90;;;;;;5041849;28;20046;-80
2022/07/20 00:21:19;;;;;;;7.93;2.50;;;23.50;99.90;;;;;;5041269;28;20049;-80
2022/07/20 00:23:47;;;;;;;6.75;2.63;;;23.50;99.90;;;;;;5041200;28;20074;-80
2022/07/20 00:26:13;;;;;;;6.00;2.17;;;23.50;99.90;;;;;;5040756;28;20520;-80
2022/07/20 00:28:39;;;;;;;6.22;2.80;;;23.40;99.90;;;;;;5020430;28;20131;-80
2022/07/20 00:31:05;;;;;;;5.03;2.67;;;23.30;99.90;;;;;;5037571;28;20128;-80
2022/07/20 00:33:33;;;;;;;7.95;2.47;;;23.20;99.90;;;;;;5038240;28;20045;-80
2022/07/20 00:36:01;;;;;;;6.93;2.38;;;23.10;99.90;;;;;;5021537;28;20124;-80
2022/07/20 00:38:27;;;;;;;5.53;2.38;;;23.10;99.90;;;;;;5021235;28;20409;-80
2022/07/20 00:40:52;;;;;;;5.30;3.03;;;23.00;99.90;;;;;;5037783;28;20033;-80
2022/07/20 00:43:18;;;;;;;5.07;2.22;;;22.90;99.90;;;;;;5037827;28;20697;-80
2022/07/20 00:45:45;;;;;;;6.45;2.35;;;22.70;99.90;;;;;;5020892;28;20045;-80
2022/07/20 00:48:10;;;;;;;9.38;2.72;;;22.80;99.90;;;;;;5037859;28;20183;-80
2022/07/20 00:50:39;;;;;;;6.22;2.20;;;24.10;99.90;;;;;;5041208;28;20163;-80
2022/07/20 00:53:05;;;;;;;8.75;3.00;;;22.50;99.90;;;;;;5042165;28;20056;-80
2022/07/20 00:55:31;;;;;;;5.65;2.53;;;22.50;99.90;;;;;;5026180;28;20060;-79
2022/07/20 00:58:01;;;;;;;6.10;2.17;;;22.30;99.90;;;;;;5042430;28;20044;-80
2022/07/20 01:00:26;;;;;;;7.00;2.38;;;21.90;99.90;;;;;;5026505;28;20060;-80
2022/07/20 01:02:52;;;;;;;7.13;2.65;;;22.30;99.90;;;;;;5042474;28;20044;-80
2022/07/20 01:05:21;;;;;;;7.53;2.63;;;22.60;99.90;;;;;;5042488;28;20083;-80
2022/07/20 01:07:49;;;;;;;7.90;2.60;;;21.80;99.90;;;;;;5042231;28;20037;-81
2022/07/20 01:10:16;;;;;;;7.53;2.70;;;21.70;99.90;;;;;;5042031;28;20041;-79
2022/07/20 01:12:49;;;;;;;9.68;2.85;;;21.60;99.90;;;;;;5016792;28;20064;-80
2022/07/20 01:15:16;;;;;;;8.32;2.95;;;22.20;99.90;;;;;;5042193;28;20049;-80
2022/07/20 01:17:43;;;;;;;5.30;2.40;;;21.30;99.90;;;;;;5025510;28;20083;-80
2022/07/20 01:20:16;;;;;;;4.85;2.40;;;21.20;99.90;;;;;;5042501;28;20045;-80
2022/07/20 01:22:43;;;;;;;6.70;2.80;;;20.90;1.00;;;;;;5041972;28;20579;-79
2022/07/20 01:25:09;;;;;;;5.78;2.55;;;20.80;1.00;;;;;;5038614;28;20529;-80
2022/07/20 01:27:35;;;;;;;6.50;2.65;;;21.10;99.90;;;;;;5026889;28;20361;-80
2022/07/20 01:30:00;;;;;;;5.85;3.17;;;20.60;99.90;;;;;;5044573;28;20118;-81
2022/07/20 01:32:26;;;;;;;6.15;2.53;;;22.40;99.90;;;;;;5028247;28;20439;-80
2022/07/20 01:34:53;;;;;;;5.75;2.40;;;21.90;99.90;;;;;;5044785;28;20056;-79
2022/07/20 01:37:19;;;;;;;10.38;2.80;;;20.60;99.90;;;;;;5044394;28;20044;-80
2022/07/20 01:39:45;;;;;;;8.63;2.78;;;20.60;1.00;;;;;;5045163;28;20064;-80
2022/07/20 01:42:11;;;;;;;4.82;2.40;;;20.50;1.00;;;;;;5044198;28;20079;-79
2022/07/20 01:44:39;;;;;;;8.25;2.70;;;20.50;1.00;;;;;;5044658;28;20863;-80
2022/07/20 01:47:07;;;;;;;7.60;2.80;;;22.20;1.00;;;;;;5044567;28;20052;-79
2022/07/20 01:49:33;;;;;;;8.00;2.60;;;20.70;1.00;;;;;;5044376;28;20213;-80
2022/07/20 01:52:00;;;;;;;6.13;2.42;;;20.50;1.00;;;;;;5027535;28;20600;-79
2022/07/20 01:54:28;;;;;;;5.10;2.70;;;20.60;99.90;;;;;;5027984;28;20049;-80
2022/07/20 01:56:53;;;;;;;6.00;2.58;;;20.60;99.90;;;;;;5027291;28;20060;-80
2022/07/20 01:59:19;;;;;;;10.15;2.90;;;21.00;99.90;;;;;;5027316;28;20288;-80
2022/07/20 02:01:48;;;;;;;6.13;2.90;;;21.00;99.90;;;;;;5026741;28;20052;-80
2022/07/20 02:04:14;;;;;;;7.63;2.55;;;20.70;99.90;;;;;;5043529;28;20069;-80
2022/07/20 02:06:39;;;;;;;7.10;2.67;;;20.90;99.90;;;;;;5044003;28;20075;-80
2022/07/20 02:09:07;;;;;;;6.38;2.70;;;21.00;99.90;;;;;;5027311;28;20048;-79
2022/07/20 02:11:33;;;;;;;4.60;2.28;;;21.00;99.90;;;;;;5044002;28;20149;-79
2022/07/20 02:13:59;;;;;;;8.77;2.65;;;21.40;99.90;;;;;;5028387;28;20044;-79
2022/07/20 02:16:24;;;;;;;4.97;2.42;;;21.40;99.90;;;;;;5028113;28;20056;-79
2022/07/20 02:18:53;;;;;;;7.43;2.80;;;21.40;99.90;;;;;;5043948;28;20056;-80
2022/07/20 02:21:20;;;;;;;7.43;3.20;;;21.60;99.90;;;;;;5044988;28;20044;-79
2022/07/20 02:23:47;;;;;;;7.07;2.60;;;21.30;99.90;;;;;;5044787;28;20131;-80
2022/07/20 02:26:15;;;;;;;8.27;3.08;;;21.40;99.90;;;;;;5044321;28;20044;-80
2022/07/20 02:28:41;;;;;;;8.63;2.70;;;21.50;99.90;;;;;;5032938;28;20086;-80
2022/07/20 02:31:07;;;;;;;7.30;2.65;;;21.60;99.90;;;;;;5007727;28;20087;-80
2022/07/20 02:33:32;;;;;;;6.72;2.78;;;21.30;99.90;;;;;;5006949;28;20080;-80
2022/07/20 02:35:58;;;;;;;8.02;2.70;;;21.30;99.90;;;;;;5024147;28;20080;-80
2022/07/20 02:38:25;;;;;;;5.90;3.00;;;21.50;99.90;;;;;;5023805;28;20337;-80
2022/07/20 02:40:51;;;;;;;8.93;2.90;;;21.90;99.90;;;;;;5023229;28;20045;-80
2022/07/20 02:43:16;;;;;;;7.15;2.65;;;21.40;99.90;;;;;;5006260;28;20582;-79
2022/07/20 02:45:42;;;;;;;6.78;2.80;;;21.40;99.90;;;;;;5022824;28;20045;-80
2022/07/20 02:48:08;;;;;;;7.88;3.05;;;21.50;99.90;;;;;;5005821;28;20045;-79
2022/07/20 02:50:36;;;;;;;8.15;2.42;;;21.30;99.90;;;;;;5022673;28;20103;-80
2022/07/20 02:53:03;;;;;;;6.35;2.88;;;21.40;99.90;;;;;;5006380;28;20076;-79
2022/07/20 02:55:29;;;;;;;10.00;2.72;;;22.40;99.90;;;;;;5022824;28;20045;-79
2022/07/20 02:57:55;;;;;;;7.43;2.85;;;21.70;99.90;;;;;;5022841;28;20045;-79
2022/07/20 03:00:21;;;;;;;7.22;3.22;;;22.70;99.90;;;;;;5005752;28;20537;-80
2022/07/20 03:02:48;;;;;;;9.63;2.78;;;21.10;99.90;;;;;;5022415;28;20037;-79
2022/07/20 03:05:14;;;;;;;4.93;2.40;;;21.00;99.90;;;;;;5022768;28;20987;-80
2022/07/20 03:07:40;;;;;;;6.55;2.75;;;22.00;99.90;;;;;;4998537;28;20082;-79
2022/07/20 03:10:06;;;;;;;5.82;2.60;;;21.10;99.90;;;;;;5006037;28;20040;-79
2022/07/20 03:12:33;;;;;;;8.13;2.60;;;20.90;99.90;;;;;;5005580;28;20136;-79
2022/07/20 03:15:02;;;;;;;7.15;2.97;;;21.10;99.90;;;;;;5005919;28;20083;-79
2022/07/20 03:17:28;;;;;;;7.43;3.00;;;21.00;99.90;;;;;;5012446;28;20052;-79
2022/07/20 03:19:53;;;;;;;8.75;3.35;;;20.90;99.90;;;;;;5006379;28;20528;-80
2022/07/20 03:22:20;;;;;;;7.28;2.83;;;20.90;99.90;;;;;;5007537;28;20516;-79
2022/07/20 03:24:47;;;;;;;8.65;3.13;;;21.10;99.90;;;;;;5024843;28;20135;-80
2022/07/20 03:27:13;;;;;;;9.60;2.72;;;22.80;99.90;;;;;;5024960;28;20052;-80
2022/07/20 03:29:39;;;;;;;12.65;3.20;;;21.40;99.90;;;;;;5039720;28;20057;-79
2022/07/20 03:32:25;;;;;;;8.18;3.00;;;20.80;99.90;;;;;;5043104;28;20053;-79
2022/07/20 03:50:09;;;;;;;11.07;3.13;;;21.60;99.90;;;;;;4813295;29;20520;-79
2022/07/20 04:05:12;;;;;;;;;;;;;;;;;;;;;
2022/07/20 04:07:57;;;;;;;7.07;3.45;;;21.70;99.90;;;;;;4761527;30;20444;-79
2022/07/20 04:10:33;;;;;;;7.28;2.80;;;20.60;99.90;;;;;;4762932;30;20059;-79
2022/07/20 04:13:09;;;;;;;7.28;3.17;;;20.60;99.90;;;;;;4774174;29;20059;-79
2022/07/20 04:15:49;;;;;;;8.20;2.88;;;19.00;99.90;;;;;;4772820;29;20147;-79
2022/07/20 04:18:16;;;;;;;10.80;3.17;;;21.00;99.90;;;;;;4771013;29;20089;-79
2022/07/20 04:20:42;;;;;;;5.70;3.10;;;20.80;99.90;;;;;;4773883;29;20060;-79
2022/07/20 04:23:08;;;;;;;7.15;3.03;;;20.70;99.90;;;;;;4827597;29;20157;-80
2022/07/20 04:25:34;;;;;;;7.28;2.90;;;20.80;99.90;;;;;;4884358;28;20142;-79
2022/07/20 04:27:59;;;;;;;5.47;2.80;;;21.20;99.90;;;;;;4939945;28;20062;-79
2022/07/20 04:30:47;;;;;;;6.28;2.95;;;20.70;99.90;;;;;;4934798;28;20051;-79
2022/07/20 04:41:51;;;;;;;5.68;2.85;;;22.60;99.90;;;;;;4817011;29;20453;-79
2022/07/20 04:45:22;;;;;;;6.80;2.88;;;21.20;99.90;;;;;;4846994;29;20495;-79
2022/07/20 04:48:03;;;;;;;7.28;3.05;;;21.20;99.90;;;;;;4792763;29;20054;-79
2022/07/20 04:50:30;;;;;;;7.97;3.20;;;21.30;99.90;;;;;;4778015;29;20063;-79
2022/07/20 04:52:56;;;;;;;8.60;3.85;;;21.20;99.90;;;;;;4808704;29;20051;-78
2022/07/20 04:55:22;;;;;;;12.27;3.45;;;20.10;99.90;;;;;;4794228;29;20058;-79
2022/07/20 04:57:50;;;;;;;10.20;3.58;;;21.20;99.90;;;;;;4793935;29;20054;-79
2022/07/20 05:00:25;;;;;;;8.30;3.83;;;22.00;99.90;;;;;;4805216;29;20828;-79
2022/07/20 05:03:08;;;;;;;9.45;4.20;;;21.40;99.90;;;;;;4781166;29;20450;-79
2022/07/20 05:05:53;;;;;;;12.63;4.25;;;21.70;99.90;;;;;;4821177;29;20674;-79
2022/07/20 05:08:53;;;;;;;8.05;4.93;;;23.90;99.90;;;;;;4859855;29;20474;-79
2022/07/20 05:11:29;;;;;;;9.43;5.18;;;21.60;99.90;;;;;;4877347;29;20112;-79
2022/07/20 05:14:01;;;;;;;7.88;5.05;;;23.40;99.90;;;;;;4859758;29;20437;-79
2022/07/20 05:16:32;;;;;;;;;;;19.70;99.90;;;;;;4886050;29;20497;-79
2022/07/20 05:19:04;;;;;;;10.43;6.57;;;22.00;99.90;;;;;;4931973;28;19926;-80
2022/07/20 05:21:36;;;;;;;9.57;5.28;;;22.30;99.90;;;;;;4913941;28;20051;-79
2022/07/20 05:24:03;;;;;;;9.90;5.32;;;22.10;99.90;;;;;;4948672;28;20106;-79
2022/07/20 05:27:16;;;;;;;8.55;4.53;;;22.10;99.90;;;;;;5032579;28;20119;-80
2022/07/20 05:30:07;;;;;;;8.05;3.85;;;23.60;99.90;;;;;;5012546;28;20648;-80
2022/07/20 05:33:14;;;;;;;9.07;3.50;;;24.50;99.90;;;;;;5022207;28;20102;-80
2022/07/20 05:36:02;;;;;;;;;;;23.90;99.90;;;;;;5001569;28;20967;-80
2022/07/20 05:38:40;;;;;;;8.38;3.60;;;22.50;99.90;;;;;;5026837;28;19927;-80
2022/07/20 05:41:44;;;;;;;9.60;3.30;;;22.80;99.90;;;;;;5025735;28;20091;-81
2022/07/20 05:44:31;;;;;;;7.40;3.15;;;23.60;99.90;;;;;;5025818;28;20114;-80
2022/07/20 05:47:42;;;;;;;7.13;3.50;;;21.60;99.90;;;;;;5025896;28;20045;-81
2022/07/20 05:50:33;;;;;;;16.13;4.13;;;23.10;99.90;;;;;;5019787;28;20504;-82
2022/07/20 05:53:01;;;;;;;7.78;2.95;;;23.20;99.90;;;;;;5002759;28;20438;-81
2022/07/20 05:55:29;;;;;;;6.22;3.30;;;23.70;99.90;;;;;;5002784;28;20049;-82
2022/07/20 05:58:00;;;;;;;9.98;3.22;;;23.80;99.90;;;;;;5003248;28;20045;-82
2022/07/20 06:00:30;;;;;;;7.25;3.42;;;23.90;99.90;;;;;;5010416;28;20053;-80
2022/07/20 06:02:55;;;;;;;6.57;3.53;;;23.50;99.90;;;;;;5003797;28;20045;-81
2022/07/20 06:05:26;;;;;;;11.93;3.25;;;23.60;99.90;;;;;;4982054;28;20053;-81
2022/07/20 06:07:55;;;;;;;9.30;3.38;;;23.90;99.90;;;;;;4986643;28;20601;-81
2022/07/20 06:10:21;;;;;;;10.90;3.70;;;23.70;99.90;;;;;;5003226;28;20400;-81
2022/07/20 06:12:49;;;;;;;11.68;3.67;;;23.90;99.90;;;;;;4987001;28;20466;-81
2022/07/20 06:15:14;;;;;;;7.63;3.45;;;24.20;99.90;;;;;;4987683;28;20049;-81
2022/07/20 06:17:41;;;;;;;9.18;3.17;;;24.40;99.90;;;;;;5003013;28;20064;-80
2022/07/20 06:20:09;;;;;;;9.10;3.47;;;24.20;99.90;;;;;;4988049;28;20058;-81
2022/07/20 06:22:40;;;;;;;10.25;4.10;;;23.90;99.90;;;;;;5024851;28;20531;-81
2022/07/20 06:25:07;;;;;;;7.87;3.30;;;24.70;99.90;;;;;;5024053;28;20049;-81
2022/07/20 06:27:33;;;;;;;9.43;3.28;;;24.60;99.90;;;;;;5023993;28;20395;-81
2022/07/20 06:30:00;;;;;;;8.60;3.72;;;24.80;99.90;;;;;;5040983;28;20117;-81
2022/07/20 06:32:26;;;;;;;8.05;3.50;;;25.30;99.90;;;;;;5027877;28;20036;-80
2022/07/20 06:34:54;;;;;;;9.50;3.75;;;25.80;99.90;;;;;;5027535;28;20457;-80
2022/07/20 06:37:20;;;;;;;6.88;3.33;;;25.90;97.90;;;;;;5043763;28;20071;-83
2022/07/20 06:39:46;;;;;;;8.48;3.35;;;26.20;46.50;;;;;;5043341;28;20394;-80
2022/07/20 06:42:15;;;;;;;15.02;4.13;;;26.10;1.00;;;;;;5043195;28;20163;-81
2022/07/20 06:44:43;;;;;;;7.22;3.88;;;26.00;1.00;;;;;;5043515;28;20505;-82
2022/07/20 06:47:09;;;;;;;9.13;4.13;;;25.90;1.00;;;;;;5042903;28;20049;-83
2022/07/20 06:49:35;;;;;;;9.80;4.13;;;25.70;1.00;;;;;;5042569;28;20045;-81
2022/07/20 06:52:01;;;;;;;9.68;3.90;;;26.00;1.00;;;;;;5043393;28;20551;-81
2022/07/20 06:54:27;;;;;;;8.70;3.95;;;25.70;1.00;;;;;;5059396;28;20637;-81
2022/07/20 06:56:53;;;;;;;8.80;4.00;;;25.90;1.00;;;;;;5026749;28;20040;-82
2022/07/20 06:59:19;;;;;;;7.68;4.00;;;26.10;1.00;;;;;;5026156;28;20051;-81
2022/07/20 07:01:45;;;;;;;13.18;4.90;;;26.20;1.00;;;;;;5026030;28;20433;-81
2022/07/20 07:04:11;;;;;;;12.85;4.53;;;27.10;1.00;;;;;;5026231;28;20041;-81
2022/07/20 07:06:36;;;;;;;9.25;4.93;;;27.80;1.00;;;;;;5026328;28;20432;-81
2022/07/20 07:09:03;;;;;;;12.48;4.70;;;29.00;99.90;;;;;;5042624;28;20106;-81
2022/07/20 07:11:28;;;;;;;10.40;5.00;;;29.90;99.90;;;;;;5042864;28;20044;-82
2022/07/20 07:13:54;;;;;;;15.95;5.10;;;30.80;99.90;;;;;;5043232;28;20067;-82
2022/07/20 07:16:21;;;;;;;11.15;4.70;;;31.30;99.90;;;;;;5042840;28;20037;-80
2022/07/20 07:18:46;;;;;;;10.60;5.05;;;31.90;97.40;;;;;;5042577;28;20053;-80
2022/07/20 07:21:14;;;;;;;9.82;5.45;;;32.00;4.00;;;;;;5042624;28;20063;-81
2022/07/20 07:23:40;;;;;;;16.90;5.15;;;32.40;1.00;;;;;;5042603;28;20139;-82
2022/07/20 07:26:05;;;;;;;11.48;5.50;;;32.90;1.00;;;;;;5042508;28;20150;-81
2022/07/20 07:28:33;;;;;;;13.43;5.60;;;33.30;1.00;;;;;;5037467;28;20135;-83
2022/07/20 07:31:01;;;;;;;14.25;5.82;;;33.40;1.00;;;;;;5022526;28;20045;-84
2022/07/20 07:33:27;;;;;;;13.23;5.22;;;33.20;99.90;;;;;;5022976;28;20862;-83
2022/07/20 07:35:54;;;;;;;9.65;5.68;;;33.10;99.90;;;;;;5006687;28;20490;-82
2022/07/20 07:38:20;;;;;;;9.95;6.07;;;33.40;99.90;;;;;;5022875;28;20080;-83
2022/07/20 07:40:46;;;;;;;13.75;6.97;;;33.30;99.90;;;;;;5023226;28;20049;-83
2022/07/20 07:43:11;;;;;;;14.48;6.85;;;33.20;99.90;;;;;;5022824;28;20500;-83
2022/07/20 07:45:38;;;;;;;18.90;7.90;;;33.20;99.90;;;;;;5023262;28;20048;-86
2022/07/20 07:48:05;;;;;;;15.60;7.95;;;33.30;99.90;;;;;;5006277;28;20494;-83
2022/07/20 07:50:31;;;;;;;13.07;7.30;;;33.50;99.90;;;;;;5005922;28;20055;-83
2022/07/20 07:52:57;;;;;;;17.48;7.65;;;33.50;99.90;;;;;;5022914;28;20503;-82
2022/07/20 07:55:25;;;;;;;15.35;7.45;;;33.90;99.90;;;;;;5022684;28;20037;-81
2022/07/20 07:57:51;;;;;;;15.18;7.75;;;34.40;99.90;;;;;;5005317;28;20124;-83
2022/07/20 08:00:17;;;;;;;15.52;7.80;;;34.00;99.90;;;;;;5022745;28;20147;-83
2022/07/20 08:02:44;;;;;;;14.00;7.55;;;34.20;99.90;;;;;;5022554;28;20083;-82
2022/07/20 08:05:10;;;;;;;31.02;9.80;;;34.60;99.90;;;;;;5022378;28;20040;-82
2022/07/20 08:07:39;;;;;;;38.35;11.18;;;34.30;99.90;;;;;;5005948;28;20448;-82
2022/07/20 08:10:07;;;;;;;21.63;9.68;;;34.30;99.90;;;;;;5006019;28;20136;-81
2022/07/20 08:12:34;;;;;;;19.77;9.55;;;34.20;99.90;;;;;;5005696;28;20401;-82
2022/07/20 08:15:00;;;;;;;21.48;10.68;;;33.80;99.90;;;;;;5005507;28;20052;-83
2022/07/20 08:17:26;;;;;;;20.65;10.63;;;33.80;99.90;;;;;;5022136;28;20087;-81
2022/07/20 08:19:53;;;;;;;63.72;17.25;;;33.60;99.90;;;;;;5021539;28;20669;-82
2022/07/20 08:22:19;;;;;;;18.10;10.38;;;33.10;99.90;;;;;;5021685;28;20049;-84
2022/07/20 08:24:45;;;;;;;16.30;10.80;;;33.00;99.90;;;;;;5004310;28;20051;-82
2022/07/20 08:27:11;;;;;;;18.50;10.70;;;32.80;99.90;;;;;;5021512;28;20053;-82
2022/07/20 08:29:37;;;;;;;24.67;12.20;;;32.30;99.90;;;;;;5015307;28;20052;-81
2022/07/20 08:32:03;;;;;;;20.02;12.45;;;31.90;99.90;;;;;;5038250;28;20049;-84
2022/07/20 08:34:29;;;;;;;18.27;12.23;;;31.90;99.90;;;;;;5038648;28;20075;-82
2022/07/20 08:36:55;;;;;;;19.45;13.15;;;32.00;99.90;;;;;;5038329;28;20044;-82
2022/07/20 08:39:26;;;;;;;21.17;13.38;;;32.50;99.90;;;;;;5021858;28;20041;-81
2022/07/20 08:41:51;;;;;;;;;;;32.20;99.90;;;;;;5022543;28;20049;-83
2022/07/20 08:44:17;;;;;;;22.92;13.20;;;32.20;99.90;;;;;;5037856;28;19931;-82
2022/07/20 08:46:45;;;;;;;25.00;14.43;;;32.10;99.90;;;;;;5038276;28;20060;-82
2022/07/20 08:49:14;;;;;;;21.30;12.85;;;32.40;99.90;;;;;;5021922;28;20115;-82
2022/07/20 08:51:43;;;;;;;19.70;13.52;;;32.00;99.90;;;;;;5022573;28;20063;-82
2022/07/20 08:54:09;;;;;;;21.75;13.75;;;31.30;99.90;;;;;;5021248;28;20045;-81
2022/07/20 08:56:34;;;;;;;21.42;13.60;;;30.80;1.00;;;;;;5021640;28;20071;-82
2022/07/20 08:59:00;;;;;;;24.50;15.07;;;30.60;1.00;;;;;;5038246;28;20135;-83
2022/07/20 09:01:29;;;;;;;29.48;15.40;;;30.40;1.00;;;;;;5021461;28;20041;-80
2022/07/20 09:04:10;;;;;;;27.35;15.48;;;30.30;1.00;;;;;;5038711;28;20091;-81
2022/07/20 09:06:44;;;;;;;;;;;30.30;1.00;;;;;;5039550;28;20045;-79
2022/07/20 09:09:10;;;;;;;24.63;16.67;;;30.40;1.00;;;;;;5022510;28;20525;-83
2022/07/20 09:11:36;;;;;;;26.70;16.10;;;30.70;1.00;;;;;;5042383;28;20351;-82
2022/07/20 09:14:02;;;;;;;25.02;16.30;;;30.70;1.00;;;;;;5043008;28;20063;-82
2022/07/20 09:16:43;;;;;;;27.77;16.88;;;31.00;1.00;;;;;;5025780;28;20101;-81
2022/07/20 09:19:09;;;;;;;28.25;16.65;;;31.20;1.00;;;;;;5042778;28;20044;-81
2022/07/20 09:21:34;;;;;;;27.02;17.30;;;31.00;1.00;;;;;;5026033;28;20049;-83
2022/07/20 09:24:05;;;;;;;23.77;15.30;;;31.00;2.80;;;;;;5042542;28;20045;-81
2022/07/20 09:26:33;;;;;;;;;;;31.40;17.30;;;;;;5026677;28;20695;-81
2022/07/20 09:29:03;;;;;;;29.33;16.58;;;31.20;18.00;;;;;;5019769;28;19925;-82
2022/07/20 09:31:35;;;;;;;28.88;16.00;;;30.70;12.80;;;;;;5024893;28;20121;-80
2022/07/20 09:34:09;;;;;;;24.35;16.20;;;30.20;10.90;;;;;;5025093;28;20068;-81
2022/07/20 09:36:37;;;;;;;27.55;16.30;;;30.30;18.20;;;;;;5025153;28;20551;-81
2022/07/20 09:39:16;;;;;;;28.00;17.13;;;29.80;21.60;;;;;;5025269;28;20037;-80
2022/07/20 09:41:50;;;;;;;26.38;18.00;;;30.30;50.60;;;;;;5024865;28;20088;-81
2022/07/20 09:44:30;;;;;;;24.15;17.10;;;30.30;54.30;;;;;;5024307;28;20513;-81
2022/07/20 09:46:56;;;;;;;37.28;17.65;;;28.60;20.30;;;;;;5024394;28;20049;-80
2022/07/20 09:49:31;;;;;;;23.73;15.77;;;30.00;48.80;;;;;;5008265;28;20041;-81
2022/07/20 09:51:59;;;;;;;27.35;15.77;;;29.90;72.30;;;;;;5024304;28;20045;-81
2022/07/20 09:54:25;;;;;;;23.73;14.82;;;29.90;41.90;;;;;;5024664;28;20053;-82
2022/07/20 09:56:51;;;;;;;22.67;14.40;;;29.90;16.30;;;;;;5007994;28;20517;-80
2022/07/20 09:59:19;;;;;;;25.33;14.63;;;30.00;13.80;;;;;;5007619;28;20049;-80
2022/07/20 10:01:56;;;;;;;27.00;14.50;;;29.90;11.80;;;;;;5024393;28;20060;-80
2022/07/20 10:04:23;;;;;;;23.60;13.95;;;29.90;17.50;;;;;;5007824;28;20178;-81
2022/07/20 10:06:51;;;;;;;22.10;13.63;;;30.20;17.80;;;;;;5040425;28;20528;-81
2022/07/20 10:09:19;;;;;;;19.17;13.15;;;30.20;7.50;;;;;;5007054;28;20072;-81
2022/07/20 10:11:47;;;;;;;21.05;13.80;;;30.50;9.20;;;;;;5024548;28;20044;-82
2022/07/20 10:14:18;;;;;;;18.65;13.02;;;30.80;11.10;;;;;;5007312;28;20410;-79
2022/07/20 10:16:48;;;;;;;20.83;10.90;;;30.70;1.00;;;;;;5007446;28;20059;-81
2022/07/20 10:19:14;;;;;;;17.30;10.27;;;30.70;1.00;;;;;;5024114;28;20060;-79
2022/07/20 10:21:46;;;;;;;20.10;10.27;;;30.40;1.00;;;;;;5007369;28;20064;-81
2022/07/20 10:24:22;;;;;;;17.98;10.05;;;30.40;1.00;;;;;;5007494;28;20059;-80
2022/07/20 10:26:53;;;;;;;22.05;10.15;;;30.50;1.00;;;;;;5023882;28;20049;-79
2022/07/20 10:29:26;;;;;;;19.50;10.40;;;30.80;1.00;;;;;;5035746;28;20776;-79
2022/07/20 10:31:55;;;;;;;17.98;9.50;;;30.70;1.00;;;;;;5028014;28;20466;-79
2022/07/20 10:34:36;;;;;;;15.93;9.15;;;31.00;1.00;;;;;;5044900;28;20040;-80
2022/07/20 10:37:43;;;;;;;15.40;9.27;;;30.60;1.00;;;;;;5021954;28;20045;-80
2022/07/20 10:40:24;;;;;;;15.30;9.05;;;30.70;1.00;;;;;;5044185;28;20123;-79
2022/07/20 10:43:11;;;;;;;19.70;9.57;;;31.10;1.00;;;;;;5044438;28;20066;-82
2022/07/20 10:45:40;;;;;;;14.63;9.50;;;30.60;1.00;;;;;;5015308;28;20094;-79
2022/07/20 10:48:11;;;;;;;16.40;8.68;;;30.60;1.00;;;;;;5044358;28;20044;-81
2022/07/20 10:50:44;;;;;;;15.68;8.40;;;30.60;1.00;;;;;;5044642;28;20043;-80
2022/07/20 10:53:10;;;;;;;21.15;8.88;;;30.80;1.00;;;;;;5044181;28;20083;-80
2022/07/20 10:55:36;;;;;;;19.33;9.27;;;30.50;1.00;;;;;;5028366;28;20079;-81
2022/07/20 10:58:05;;;;;;;16.65;9.50;;;30.50;1.00;;;;;;5028735;28;20580;-81
2022/07/20 11:00:41;;;;;;;15.55;7.85;;;30.40;1.00;;;;;;5043658;28;20036;-80
2022/07/20 11:03:23;;;;;;;18.67;8.80;;;30.70;1.00;;;;;;5043158;28;20179;-80
2022/07/20 11:06:08;;;;;;;16.23;8.73;;;30.70;1.00;;;;;;5026874;28;20044;-80
2022/07/20 11:08:40;;;;;;;14.73;9.05;;;31.30;1.00;;;;;;5042624;28;20114;-80
2022/07/20 11:11:09;;;;;;;13.00;8.60;;;31.30;1.00;;;;;;5026381;28;20051;-80
2022/07/20 11:13:36;;;;;;;15.38;8.60;;;31.30;1.00;;;;;;5043143;28;20442;-80
2022/07/20 11:16:04;;;;;;;14.55;9.40;;;31.10;1.00;;;;;;5043242;28;20067;-80
2022/07/20 11:18:31;;;;;;;15.50;9.88;;;30.90;1.00;;;;;;5025932;28;20456;-81
2022/07/20 11:21:01;;;;;;;14.10;8.52;;;31.30;1.00;;;;;;5043097;28;20141;-82
2022/07/20 11:23:40;;;;;;;13.23;8.38;;;31.30;1.00;;;;;;5026011;28;20045;-81
2022/07/20 11:26:07;;;;;;;16.17;8.68;;;31.50;1.00;;;;;;5042475;28;20428;-79
2022/07/20 11:28:53;;;;;;;14.45;8.32;;;31.30;1.00;;;;;;5020607;28;20056;-79
2022/07/20 11:31:25;;;;;;;12.38;7.55;;;31.50;1.00;;;;;;5003337;28;20577;-81
2022/07/20 11:33:53;;;;;;;15.18;7.68;;;31.40;1.00;;;;;;5021938;28;20049;-79
2022/07/20 11:36:29;;;;;;;13.10;6.60;;;31.30;1.00;;;;;;5022268;28;20041;-80
2022/07/20 11:39:01;;;;;;;15.57;7.47;;;31.50;1.00;;;;;;5005767;28;20457;-79
2022/07/20 11:41:29;;;;;;;11.77;6.88;;;31.50;1.00;;;;;;5023292;28;20052;-80
2022/07/20 11:43:55;;;;;;;11.15;6.55;;;31.30;1.00;;;;;;5006392;28;20048;-81
2022/07/20 11:46:27;;;;;;;13.27;6.07;;;31.80;1.00;;;;;;5022741;28;20044;-80
2022/07/20 11:48:58;;;;;;;11.88;6.80;;;31.20;99.90;;;;;;5006408;28;20044;-81
2022/07/20 11:51:25;;;;;;;11.80;6.60;;;31.40;1.00;;;;;;5022871;28;20048;-81
2022/07/20 11:53:51;;;;;;;14.90;7.20;;;31.40;1.00;;;;;;5022486;28;20051;-80
2022/07/20 11:56:22;;;;;;;14.07;6.65;;;31.40;1.00;;;;;;5022452;28;20044;-82
2022/07/20 11:58:53;;;;;;;16.08;7.57;;;31.20;1.00;;;;;;5022456;28;20049;-79
2022/07/20 12:01:23;;;;;;;13.60;6.13;;;31.10;1.00;;;;;;5005912;28;20040;-80
2022/07/20 12:04:00;;;;;;;17.02;7.55;;;31.20;1.00;;;;;;5022449;28;20045;-78
2022/07/20 12:06:28;;;;;;;13.13;6.53;;;31.30;99.90;;;;;;5006215;28;20052;-79
2022/07/20 12:09:13;;;;;;;13.30;5.97;;;28.50;1.00;;;;;;5022027;28;20147;-81
2022/07/20 12:11:56;;;;;;;11.13;6.80;;;31.00;99.90;;;;;;5022414;28;20508;-79
2022/07/20 12:14:29;;;;;;;10.40;6.55;;;30.90;99.90;;;;;;5005856;28;20041;-81
2022/07/20 12:17:09;;;;;;;12.68;6.95;;;31.40;99.90;;;;;;5006200;28;20044;-79
2022/07/20 12:19:35;;;;;;;13.98;7.38;;;30.90;99.90;;;;;;4997874;28;20452;-80
2022/07/20 12:22:01;;;;;;;13.15;7.38;;;30.50;99.90;;;;;;5005841;28;20048;-81
2022/07/20 12:24:27;;;;;;;13.52;7.45;;;30.60;99.90;;;;;;5005116;28;20053;-79
2022/07/20 12:27:05;;;;;;;13.43;8.32;;;30.70;99.90;;;;;;5021766;28;20037;-79
2022/07/20 12:29:31;;;;;;;12.38;7.82;;;30.70;99.90;;;;;;5030922;28;20493;-81
2022/07/20 12:32:01;;;;;;;13.32;8.15;;;30.90;99.90;;;;;;5038547;28;20128;-81
2022/07/20 12:34:28;;;;;;;14.50;8.75;;;30.70;99.90;;;;;;5019406;28;20096;-80
2022/07/20 12:36:53;;;;;;;10.77;7.93;;;30.80;99.90;;;;;;5022315;28;20045;-79
2022/07/20 12:39:41;;;;;;;17.83;8.48;;;30.90;99.90;;;;;;5021432;28;20041;-79
2022/07/20 12:42:29;;;;;;;15.00;7.63;;;30.70;99.90;;;;;;5038079;28;20436;-80
2022/07/20 12:45:04;;;;;;;14.30;7.65;;;31.00;99.90;;;;;;5024625;28;20049;-79
2022/07/20 12:47:30;;;;;;;11.20;7.07;;;31.00;99.90;;;;;;5042433;28;20048;-79
2022/07/20 12:49:56;;;;;;;13.25;7.13;;;31.10;99.90;;;;;;5042143;28;20727;-80
2022/07/20 12:52:23;;;;;;;13.55;7.35;;;31.20;99.90;;;;;;5042543;28;20049;-80
2022/07/20 12:54:50;;;;;;;10.05;6.80;;;31.10;99.90;;;;;;5042048;28;20056;-80
2022/07/20 12:57:20;;;;;;;11.70;7.00;;;30.70;99.90;;;;;;5042406;28;20048;-81
2022/07/20 12:59:46;;;;;;;14.70;7.18;;;30.80;99.90;;;;;;5042353;28;20127;-80
2022/07/20 13:02:14;;;;;;;11.45;6.85;;;30.80;99.90;;;;;;5042186;28;20049;-80
2022/07/20 13:04:41;;;;;;;9.07;6.03;;;31.10;99.90;;;;;;5042227;28;20048;-81
2022/07/20 13:07:07;;;;;;;12.32;5.95;;;31.10;99.90;;;;;;5042002;28;20047;-80
2022/07/20 13:09:33;;;;;;;10.07;5.63;;;31.10;99.90;;;;;;5025454;28;20041;-80
2022/07/20 13:12:00;;;;;;;10.20;5.90;;;31.20;99.90;;;;;;5025569;28;20824;-80
2022/07/20 13:14:26;;;;;;;9.93;5.15;;;31.10;99.90;;;;;;5042081;28;20048;-80
2022/07/20 13:16:53;;;;;;;9.40;5.03;;;31.20;99.90;;;;;;5042419;28;20060;-80
2022/07/20 13:19:21;;;;;;;10.98;5.43;;;31.10;99.90;;;;;;5042752;28;20050;-80
2022/07/20 13:21:49;;;;;;;10.80;5.13;;;31.20;99.90;;;;;;5025946;28;20081;-80
2022/07/20 13:24:16;;;;;;;11.30;4.45;;;30.90;99.90;;;;;;5042399;28;20049;-80
2022/07/20 13:26:43;;;;;;;11.65;5.20;;;31.10;99.90;;;;;;5025539;28;20033;-80
2022/07/20 13:29:09;;;;;;;10.90;4.32;;;30.60;99.90;;;;;;5036721;28;20057;-80
2022/07/20 13:31:35;;;;;;;9.48;4.90;;;30.60;99.90;;;;;;5025609;28;20140;-80
2022/07/20 13:34:01;;;;;;;11.50;4.95;;;30.60;99.90;;;;;;5024549;28;20293;-80
2022/07/20 13:36:30;;;;;;;10.18;4.53;;;30.80;99.90;;;;;;5025059;28;20044;-80
2022/07/20 13:38:57;;;;;;;8.13;5.30;;;30.90;99.90;;;;;;5024995;28;20557;-79